Time;durP1;ratioP1;P1;durP2;ratioP2;P2;SDS_P1;SDS_P2;PMS_P1;PMS_P2;Temp;Humidity;BMP_temperature;BMP_pressure;BME280_temperature;BME280_humidity;BME280_pressure;Samples;Min_cycle;Max_cycle;Signal;HPM_P1;HPM_P2
2023/10/07 00:01:58;;;;;;;13.68;5.38;;;15.90;99.90;;;;;;4943763;29;20743;-77
2023/10/07 00:04:26;;;;;;;12.10;6.07;;;15.90;99.90;;;;;;4943537;29;20203;-77
2023/10/07 00:06:53;;;;;;;10.70;6.35;;;15.90;99.90;;;;;;4944390;29;20203;-78
2023/10/07 00:09:22;;;;;;;13.93;5.97;;;15.90;99.90;;;;;;4944830;29;20223;-76
2023/10/07 00:11:49;;;;;;;13.07;5.80;;;15.80;99.90;;;;;;4937070;29;20246;-77
2023/10/07 00:14:16;;;;;;;11.85;5.93;;;15.80;99.90;;;;;;4943864;29;20234;-78
2023/10/07 00:16:46;;;;;;;11.70;5.60;;;15.90;99.90;;;;;;4943850;29;20199;-79
2023/10/07 00:19:13;;;;;;;13.63;6.03;;;15.80;99.90;;;;;;4943952;29;20250;-77
2023/10/07 00:21:58;;;;;;;11.18;5.43;;;15.80;99.90;;;;;;4944267;29;20207;-77
2023/10/07 00:24:26;;;;;;;10.80;5.15;;;15.80;99.90;;;;;;4944392;29;20222;-78
2023/10/07 00:26:53;;;;;;;13.90;6.65;;;15.90;99.90;;;;;;4943224;29;20207;-77
2023/10/07 00:29:23;;;;;;;8.98;5.03;;;15.90;99.90;;;;;;4944620;29;20238;-77
2023/10/07 00:31:52;;;;;;;11.75;5.78;;;15.90;99.90;;;;;;4944776;29;20199;-78
2023/10/07 00:34:26;;;;;;;11.50;5.20;;;15.90;99.90;;;;;;4944463;29;20207;-77
2023/10/07 00:36:58;;;;;;;8.48;5.00;;;16.10;99.90;;;;;;4944260;29;20199;-78
2023/10/07 00:39:31;;;;;;;11.43;6.00;;;15.90;99.90;;;;;;4944072;29;20250;-78
2023/10/07 00:41:59;;;;;;;11.70;5.10;;;16.00;99.90;;;;;;4942957;29;20207;-76
2023/10/07 00:44:32;;;;;;;16.17;5.88;;;16.00;99.90;;;;;;4940663;29;20270;-76
2023/10/07 00:47:13;;;;;;;8.40;5.28;;;16.00;99.90;;;;;;4938824;29;20211;-77
2023/10/07 00:49:42;;;;;;;12.23;5.63;;;16.00;99.90;;;;;;4943822;29;20257;-77
2023/10/07 00:52:14;;;;;;;9.68;5.18;;;16.00;99.90;;;;;;4944177;29;20279;-78
2023/10/07 00:54:50;;;;;;;11.18;5.43;;;15.90;99.90;;;;;;4935568;29;20206;-77
2023/10/07 00:57:24;;;;;;;11.35;5.43;;;16.00;99.90;;;;;;4943581;29;20210;-78
2023/10/07 00:59:53;;;;;;;12.10;5.75;;;16.00;99.90;;;;;;4943246;29;20306;-77
2023/10/07 01:02:29;;;;;;;10.95;5.50;;;16.00;99.90;;;;;;4942878;29;20247;-78
2023/10/07 01:05:00;;;;;;;10.18;5.53;;;16.00;99.90;;;;;;4943011;29;20226;-78
2023/10/07 01:07:28;;;;;;;10.60;5.65;;;16.00;99.90;;;;;;4942822;29;20211;-79
2023/10/07 01:10:00;;;;;;;11.63;6.32;;;16.10;99.90;;;;;;4942953;29;20259;-79
2023/10/07 01:12:35;;;;;;;10.07;5.45;;;16.00;99.90;;;;;;4942526;29;20223;-78
2023/10/07 01:15:13;;;;;;;13.48;5.65;;;16.00;99.90;;;;;;4940945;29;20241;-78
2023/10/07 01:17:41;;;;;;;15.77;5.95;;;16.00;99.90;;;;;;4949100;29;20226;-78
2023/10/07 01:20:10;;;;;;;10.85;5.40;;;16.00;99.90;;;;;;4941735;29;20199;-78
2023/10/07 01:22:43;;;;;;;10.80;5.30;;;16.00;99.90;;;;;;4941427;29;20211;-77
2023/10/07 01:25:17;;;;;;;11.77;5.30;;;16.00;99.90;;;;;;4942297;29;20213;-79
2023/10/07 01:27:50;;;;;;;11.27;5.88;;;16.00;99.90;;;;;;4935354;29;20326;-78
2023/10/07 01:30:17;;;;;;;12.38;5.93;;;16.10;99.90;;;;;;4942489;29;20249;-78
2023/10/07 01:32:53;;;;;;;13.63;6.47;;;16.00;99.90;;;;;;4946074;29;20662;-78
2023/10/07 01:35:26;;;;;;;10.10;5.90;;;16.10;99.90;;;;;;4945109;29;20207;-77
2023/10/07 01:38:06;;;;;;;18.42;6.45;;;16.00;99.90;;;;;;4941472;29;20218;-77
2023/10/07 01:40:43;;;;;;;13.25;6.30;;;16.00;99.90;;;;;;4941606;29;20686;-78
2023/10/07 01:43:10;;;;;;;10.85;6.28;;;16.00;99.90;;;;;;4941303;29;20734;-77
2023/10/07 01:45:39;;;;;;;12.32;5.97;;;16.10;99.90;;;;;;4941784;29;20215;-78
2023/10/07 01:48:08;;;;;;;12.18;6.55;;;16.00;99.90;;;;;;4941417;29;20230;-77
2023/10/07 01:50:38;;;;;;;11.95;6.63;;;16.00;99.90;;;;;;4936625;29;20597;-78
2023/10/07 01:53:07;;;;;;;11.98;6.20;;;16.00;99.90;;;;;;4941485;29;20251;-78
2023/10/07 01:55:36;;;;;;;11.85;6.47;;;16.10;99.90;;;;;;4941475;29;20210;-77
2023/10/07 01:58:04;;;;;;;10.82;6.20;;;16.10;99.90;;;;;;4942177;29;20282;-77
2023/10/07 02:00:43;;;;;;;12.13;6.38;;;16.10;99.90;;;;;;4942548;29;20718;-77
2023/10/07 02:03:13;;;;;;;13.00;6.00;;;16.00;99.90;;;;;;4938742;29;20596;-77
2023/10/07 02:05:41;;;;;;;11.98;6.95;;;16.10;99.90;;;;;;4941609;29;20225;-77
2023/10/07 02:08:14;;;;;;;11.48;6.00;;;16.10;99.90;;;;;;4942113;29;20330;-78
2023/10/07 02:10:42;;;;;;;12.63;6.35;;;16.10;99.90;;;;;;4932367;29;20254;-78
2023/10/07 02:13:13;;;;;;;10.27;6.07;;;16.10;99.90;;;;;;4938980;29;20211;-77
2023/10/07 02:15:42;;;;;;;13.65;5.82;;;16.10;99.90;;;;;;4937021;29;20213;-77
2023/10/07 02:18:15;;;;;;;9.32;5.85;;;16.20;99.90;;;;;;4941520;29;20253;-77
2023/10/07 02:20:49;;;;;;;13.95;5.95;;;16.20;99.90;;;;;;4935433;29;20224;-78
2023/10/07 02:23:22;;;;;;;14.65;6.25;;;16.10;99.90;;;;;;4942511;29;20655;-77
2023/10/07 02:25:50;;;;;;;10.20;5.75;;;16.20;99.90;;;;;;4942259;29;20206;-77
2023/10/07 02:28:21;;;;;;;10.23;5.60;;;16.20;99.90;;;;;;4946260;29;20235;-76
2023/10/07 02:30:59;;;;;;;14.77;5.68;;;16.20;99.90;;;;;;4942112;29;20222;-77
2023/10/07 02:33:27;;;;;;;10.48;6.07;;;16.20;99.90;;;;;;4941320;29;20238;-78
2023/10/07 02:35:56;;;;;;;13.18;6.13;;;16.20;99.90;;;;;;4936166;29;20207;-77
2023/10/07 02:38:36;;;;;;;11.95;6.03;;;16.20;99.90;;;;;;4941359;29;20656;-78
2023/10/07 02:41:15;;;;;;;9.27;5.25;;;16.20;99.90;;;;;;4941768;29;20206;-77
2023/10/07 02:43:43;;;;;;;11.63;5.50;;;16.20;99.90;;;;;;4942725;29;20294;-77
2023/10/07 02:46:22;;;;;;;11.35;5.78;;;16.20;99.90;;;;;;4942141;29;20217;-78
2023/10/07 02:48:49;;;;;;;9.88;5.93;;;16.10;99.90;;;;;;4937362;29;20227;-77
2023/10/07 02:51:18;;;;;;;10.10;6.20;;;16.20;99.90;;;;;;4941625;29;20215;-77
2023/10/07 02:53:46;;;;;;;10.93;5.35;;;16.20;99.90;;;;;;4942358;29;20211;-78
2023/10/07 02:56:17;;;;;;;9.90;5.20;;;16.20;99.90;;;;;;4941569;29;20207;-78
2023/10/07 02:59:00;;;;;;;11.88;5.63;;;16.10;99.90;;;;;;4947690;29;20337;-78
2023/10/07 03:01:28;;;;;;;11.35;5.22;;;16.10;99.90;;;;;;4939377;29;20586;-78
2023/10/07 03:04:00;;;;;;;9.30;5.15;;;16.20;99.90;;;;;;4936610;29;20203;-78
2023/10/07 03:06:28;;;;;;;12.07;5.30;;;16.10;99.90;;;;;;4941313;29;20270;-78
2023/10/07 03:09:01;;;;;;;12.30;6.00;;;16.10;99.90;;;;;;4944129;29;20234;-77
2023/10/07 03:11:40;;;;;;;13.20;5.60;;;16.10;99.90;;;;;;4945627;29;20231;-78
2023/10/07 03:14:12;;;;;;;9.73;5.18;;;16.10;99.90;;;;;;4944984;29;20313;-76
2023/10/07 03:16:46;;;;;;;13.05;5.97;;;16.10;99.90;;;;;;4944627;29;20294;-78
2023/10/07 03:19:22;;;;;;;11.35;6.03;;;16.20;99.90;;;;;;4944460;29;20935;-79
2023/10/07 03:22:09;;;;;;;9.77;5.63;;;16.20;99.90;;;;;;4938999;29;20625;-78
2023/10/07 03:24:48;;;;;;;12.98;6.40;;;16.10;99.90;;;;;;4945964;29;20218;-77
2023/10/07 03:27:22;;;;;;;10.52;6.25;;;16.10;99.90;;;;;;4941905;29;20696;-78
2023/10/07 03:30:12;;;;;;;8.95;5.95;;;16.10;99.90;;;;;;4944774;29;20736;-78
2023/10/07 03:32:55;;;;;;;13.05;6.40;;;16.10;99.90;;;;;;4945202;29;20225;-76
2023/10/07 03:35:58;;;;;;;10.57;6.28;;;16.00;99.90;;;;;;4945463;29;20211;-77
2023/10/07 03:38:26;;;;;;;11.38;5.90;;;16.10;99.90;;;;;;4944555;29;20242;-78
2023/10/07 03:40:55;;;;;;;11.65;6.00;;;16.10;99.90;;;;;;4945827;29;20214;-78
2023/10/07 03:43:25;;;;;;;15.65;6.57;;;16.10;99.90;;;;;;4949058;29;20241;-77
2023/10/07 03:45:52;;;;;;;12.35;6.55;;;16.10;99.90;;;;;;4944332;29;20230;-77
2023/10/07 03:48:24;;;;;;;11.68;6.82;;;16.00;99.90;;;;;;4943975;29;20233;-77
2023/10/07 03:50:59;;;;;;;9.68;5.50;;;16.00;99.90;;;;;;4937234;29;20697;-78
2023/10/07 03:53:31;;;;;;;8.63;6.18;;;16.00;99.90;;;;;;4944680;29;20211;-77
2023/10/07 03:56:06;;;;;;;11.10;6.43;;;16.00;99.90;;;;;;4945242;29;20297;-76
2023/10/07 03:58:36;;;;;;;12.10;7.13;;;16.00;99.90;;;;;;4949709;29;20611;-77
2023/10/07 04:01:11;;;;;;;10.00;5.90;;;16.00;99.90;;;;;;4943127;29;20203;-78
2023/10/07 04:03:39;;;;;;;11.23;8.00;;;15.90;99.90;;;;;;4942816;29;20211;-78
2023/10/07 04:06:09;;;;;;;14.25;8.40;;;15.60;99.90;;;;;;4943529;29;20297;-77
2023/10/07 04:08:36;;;;;;;12.88;8.38;;;15.40;99.90;;;;;;4943803;29;20268;-78
2023/10/07 04:11:07;;;;;;;12.27;8.95;;;15.20;99.90;;;;;;4944280;29;20227;-77
2023/10/07 04:13:33;;;;;;;17.05;10.00;;;15.20;99.90;;;;;;4941170;29;20577;-79
2023/10/07 04:16:01;;;;;;;15.82;9.70;;;15.10;99.90;;;;;;4944293;29;20671;-78
2023/10/07 04:18:35;;;;;;;15.18;10.18;;;15.00;99.90;;;;;;4942946;29;20226;-78
2023/10/07 04:21:03;;;;;;;13.20;9.73;;;15.00;99.90;;;;;;4946959;29;20214;-78
2023/10/07 04:23:30;;;;;;;14.55;10.63;;;14.90;99.90;;;;;;4944051;29;20659;-78
2023/10/07 04:26:05;;;;;;;15.32;9.95;;;15.00;99.90;;;;;;4944516;29;20278;-79
2023/10/07 04:28:33;;;;;;;15.70;10.20;;;15.00;99.90;;;;;;4948868;29;20292;-78
2023/10/07 04:31:03;;;;;;;16.00;10.50;;;14.90;99.90;;;;;;4946114;29;20332;-77
2023/10/07 04:33:39;;;;;;;15.27;11.30;;;14.90;99.90;;;;;;4952326;29;20199;-78
2023/10/07 04:36:13;;;;;;;18.83;11.23;;;14.90;99.90;;;;;;4944782;29;20206;-78
2023/10/07 04:38:52;;;;;;;15.65;9.98;;;14.90;99.90;;;;;;4943067;28;20608;-78
2023/10/07 04:41:32;;;;;;;17.05;10.73;;;14.80;99.90;;;;;;4943294;29;20240;-77
2023/10/07 04:44:20;;;;;;;19.23;12.00;;;14.80;99.90;;;;;;4944030;29;20297;-77
2023/10/07 04:46:55;;;;;;;18.40;12.93;;;14.80;99.90;;;;;;4938480;29;20267;-77
2023/10/07 04:49:28;;;;;;;20.27;13.30;;;14.80;99.90;;;;;;4943318;29;20290;-77
2023/10/07 04:51:58;;;;;;;18.75;13.65;;;14.80;99.90;;;;;;4938410;29;20203;-78
2023/10/07 04:54:25;;;;;;;20.42;14.52;;;14.80;99.90;;;;;;4943768;29;20557;-78
2023/10/07 04:57:00;;;;;;;23.25;15.25;;;14.80;99.90;;;;;;4943961;29;20194;-79
2023/10/07 04:59:28;;;;;;;22.42;15.82;;;14.90;99.90;;;;;;4943273;29;20229;-77
2023/10/07 05:02:02;;;;;;;21.20;15.07;;;14.90;99.90;;;;;;4943166;29;20223;-79
2023/10/07 05:04:32;;;;;;;21.35;15.55;;;14.90;99.90;;;;;;4944430;29;20206;-79
2023/10/07 05:07:00;;;;;;;19.88;15.13;;;14.90;99.90;;;;;;4946684;29;20242;-76
2023/10/07 05:09:27;;;;;;;21.02;15.43;;;14.90;99.90;;;;;;4941250;29;20230;-76
2023/10/07 05:11:53;;;;;;;20.73;14.75;;;14.90;99.90;;;;;;4942607;29;20234;-77
2023/10/07 05:14:22;;;;;;;18.67;14.13;;;15.00;99.90;;;;;;4942684;29;20223;-77
2023/10/07 05:16:52;;;;;;;22.20;15.40;;;15.00;99.90;;;;;;4943031;29;20231;-77
2023/10/07 05:19:22;;;;;;;20.67;16.20;;;14.90;99.90;;;;;;4942211;29;20227;-78
2023/10/07 05:21:58;;;;;;;20.85;16.02;;;14.90;99.90;;;;;;4941760;29;20195;-78
2023/10/07 05:24:29;;;;;;;23.20;15.75;;;14.90;99.90;;;;;;4946489;29;20655;-77
2023/10/07 05:26:55;;;;;;;19.63;15.20;;;14.90;99.90;;;;;;4942080;29;20656;-78
2023/10/07 05:29:24;;;;;;;22.73;16.17;;;15.00;99.90;;;;;;4941470;29;20223;-77
2023/10/07 05:31:52;;;;;;;22.45;16.55;;;15.00;99.90;;;;;;4941591;29;20227;-78
2023/10/07 05:34:19;;;;;;;22.27;15.40;;;15.00;99.90;;;;;;4938506;29;20660;-78
2023/10/07 05:36:46;;;;;;;22.23;15.90;;;15.00;99.90;;;;;;4934938;29;20561;-78
2023/10/07 05:39:15;;;;;;;21.17;15.55;;;15.00;99.90;;;;;;4943967;29;20778;-80
2023/10/07 05:41:42;;;;;;;24.08;15.80;;;15.00;99.90;;;;;;4936028;29;20208;-78
2023/10/07 05:44:10;;;;;;;24.38;15.60;;;15.00;99.90;;;;;;4939244;29;20203;-79
2023/10/07 05:46:37;;;;;;;26.92;17.17;;;15.00;99.90;;;;;;4941704;29;20215;-79
2023/10/07 05:49:06;;;;;;;28.08;17.05;;;15.10;99.90;;;;;;4937975;29;20245;-79
2023/10/07 05:51:33;;;;;;;22.33;17.17;;;15.00;99.90;;;;;;4937635;29;20223;-77
2023/10/07 05:54:00;;;;;;;25.05;17.27;;;15.10;99.90;;;;;;4940449;29;20238;-78
2023/10/07 05:56:28;;;;;;;22.73;18.25;;;15.00;99.90;;;;;;4932983;29;20199;-78
2023/10/07 05:58:54;;;;;;;24.65;18.33;;;15.00;99.90;;;;;;4936806;29;20286;-77
2023/10/07 06:01:21;;;;;;;22.85;17.75;;;15.10;99.90;;;;;;4937226;29;20203;-78
2023/10/07 06:03:48;;;;;;;23.15;18.05;;;15.10;99.90;;;;;;4940349;29;20206;-79
2023/10/07 06:06:16;;;;;;;24.02;17.85;;;15.10;99.90;;;;;;4933865;29;20590;-78
2023/10/07 06:08:43;;;;;;;22.20;18.40;;;15.10;99.90;;;;;;4940778;29;20274;-77
2023/10/07 06:11:10;;;;;;;26.33;18.80;;;15.10;99.90;;;;;;4942365;29;20657;-78
2023/10/07 06:13:40;;;;;;;26.27;20.38;;;15.10;99.90;;;;;;4940661;29;20219;-77
2023/10/07 06:16:08;;;;;;;25.15;18.92;;;15.10;99.90;;;;;;4942045;29;20214;-77
2023/10/07 06:18:35;;;;;;;28.25;20.27;;;15.10;99.90;;;;;;4944135;29;20218;-77
2023/10/07 06:21:17;;;;;;;26.05;20.25;;;15.20;99.90;;;;;;4937901;29;20214;-77
2023/10/07 06:23:47;;;;;;;26.38;20.17;;;15.20;99.90;;;;;;4934750;29;20205;-76
2023/10/07 06:26:15;;;;;;;27.63;19.42;;;15.20;99.90;;;;;;4938421;29;20202;-77
2023/10/07 06:28:44;;;;;;;27.73;20.88;;;15.20;99.90;;;;;;4931906;29;20223;-77
2023/10/07 06:31:13;;;;;;;28.88;19.90;;;15.20;99.90;;;;;;4933400;29;20219;-78
2023/10/07 06:33:40;;;;;;;26.30;19.70;;;15.20;99.90;;;;;;4935023;29;20632;-78
2023/10/07 06:36:10;;;;;;;28.27;21.60;;;15.20;99.90;;;;;;4941014;29;20203;-78
2023/10/07 06:38:38;;;;;;;28.23;20.30;;;15.20;99.90;;;;;;4935837;29;20239;-78
2023/10/07 06:41:13;;;;;;;28.38;21.60;;;15.20;99.90;;;;;;4938192;29;20648;-78
2023/10/07 06:43:42;;;;;;;29.30;21.13;;;15.20;99.90;;;;;;4939812;29;20206;-79
2023/10/07 06:46:11;;;;;;;31.35;21.35;;;15.20;99.90;;;;;;4941171;29;20664;-78
2023/10/07 06:48:38;;;;;;;34.33;21.70;;;15.30;99.90;;;;;;4944056;29;20328;-79
2023/10/07 06:51:10;;;;;;;28.50;21.13;;;15.30;99.90;;;;;;4945044;29;20698;-79
2023/10/07 06:53:38;;;;;;;28.85;21.25;;;15.30;99.90;;;;;;4942604;29;20215;-78
2023/10/07 06:56:05;;;;;;;33.10;20.98;;;15.30;99.90;;;;;;4936026;29;20214;-78
2023/10/07 06:58:35;;;;;;;29.23;21.05;;;15.40;99.90;;;;;;4945717;29;20219;-77
2023/10/07 07:01:10;;;;;;;31.95;21.42;;;15.40;99.90;;;;;;4941688;29;20204;-77
2023/10/07 07:03:37;;;;;;;30.60;21.13;;;15.40;99.90;;;;;;4943048;28;20214;-78
2023/10/07 07:06:16;;;;;;;30.85;21.88;;;15.40;99.90;;;;;;4939306;29;20207;-79
2023/10/07 07:08:43;;;;;;;29.55;21.20;;;15.40;99.90;;;;;;4937526;29;20219;-79
2023/10/07 07:11:10;;;;;;;32.40;21.23;;;15.40;99.90;;;;;;4941733;29;20255;-78
2023/10/07 07:13:43;;;;;;;33.17;23.30;;;15.40;99.90;;;;;;4936202;29;20211;-77
2023/10/07 07:16:13;;;;;;;32.78;23.65;;;15.40;99.90;;;;;;4939568;29;20468;-79
2023/10/07 07:18:40;;;;;;;29.88;21.83;;;15.40;99.90;;;;;;4939071;29;20457;-78
2023/10/07 07:21:14;;;;;;;33.97;21.90;;;15.40;99.90;;;;;;4935527;29;20675;-78
2023/10/07 07:23:45;;;;;;;33.55;22.40;;;15.40;99.90;;;;;;4943064;29;20222;-77
2023/10/07 07:26:12;;;;;;;32.53;21.55;;;15.40;99.90;;;;;;4942016;29;20211;-79
2023/10/07 07:28:43;;;;;;;31.85;21.40;;;15.50;99.90;;;;;;4942737;29;20222;-77
2023/10/07 07:31:11;;;;;;;34.35;23.23;;;15.50;99.90;;;;;;4942156;29;20492;-77
2023/10/07 07:33:38;;;;;;;32.67;22.58;;;15.50;99.90;;;;;;4941611;29;20241;-77
2023/10/07 07:36:18;;;;;;;30.50;21.52;;;15.50;99.90;;;;;;4939436;29;20233;-76
2023/10/07 07:38:45;;;;;;;31.60;22.73;;;15.50;99.90;;;;;;4941644;29;20259;-78
2023/10/07 07:41:26;;;;;;;36.63;22.20;;;15.50;99.90;;;;;;4942222;29;20202;-79
2023/10/07 07:43:58;;;;;;;33.45;21.95;;;15.50;99.90;;;;;;4941642;29;20207;-77
2023/10/07 07:46:30;;;;;;;36.38;23.33;;;15.50;99.90;;;;;;4939931;29;20715;-78
2023/10/07 07:49:06;;;;;;;38.25;22.85;;;15.50;99.90;;;;;;4940524;28;20230;-78
2023/10/07 07:51:37;;;;;;;34.17;23.98;;;15.50;99.90;;;;;;4937522;29;20330;-79
2023/10/07 07:54:06;;;;;;;33.50;22.73;;;15.60;99.90;;;;;;4937797;29;20234;-78
2023/10/07 07:56:34;;;;;;;29.95;21.92;;;15.70;99.90;;;;;;4940365;29;20210;-78
2023/10/07 07:59:13;;;;;;;35.22;22.88;;;15.70;99.90;;;;;;4940239;29;20594;-80
2023/10/07 08:01:44;;;;;;;30.58;21.42;;;15.80;99.90;;;;;;4939788;29;20665;-79
2023/10/07 08:04:17;;;;;;;30.42;21.65;;;15.80;99.90;;;;;;4938993;29;20257;-79
2023/10/07 08:06:45;;;;;;;34.40;21.50;;;15.80;99.90;;;;;;4939456;29;20657;-78
2023/10/07 08:09:12;;;;;;;31.15;22.75;;;15.90;99.90;;;;;;4939189;29;20242;-77
2023/10/07 08:11:40;;;;;;;30.15;21.65;;;15.90;99.90;;;;;;4941993;29;20249;-78
2023/10/07 08:14:10;;;;;;;32.67;21.75;;;15.90;99.90;;;;;;4941044;29;20678;-78
2023/10/07 08:16:50;;;;;;;32.63;21.40;;;15.90;99.90;;;;;;4940623;29;20204;-78
2023/10/07 08:19:20;;;;;;;35.10;23.17;;;16.00;99.90;;;;;;4934323;29;20246;-77
2023/10/07 08:21:51;;;;;;;33.38;21.65;;;16.00;99.90;;;;;;4935279;29;20211;-77
2023/10/07 08:24:19;;;;;;;33.55;23.23;;;16.00;99.90;;;;;;4933953;29;20203;-77
2023/10/07 08:26:48;;;;;;;31.95;21.80;;;16.00;99.90;;;;;;4943121;29;20208;-77
2023/10/07 08:29:31;;;;;;;31.83;22.58;;;16.10;99.90;;;;;;4940048;29;20233;-78
2023/10/07 08:31:59;;;;;;;32.67;22.55;;;16.20;99.90;;;;;;4937548;29;20215;-78
2023/10/07 08:34:32;;;;;;;33.15;23.13;;;16.10;99.90;;;;;;4937497;29;20214;-78
2023/10/07 08:37:01;;;;;;;30.35;20.85;;;16.10;99.90;;;;;;4934846;29;20213;-77
2023/10/07 08:39:35;;;;;;;30.90;21.73;;;16.20;99.90;;;;;;4935261;29;20219;-77
2023/10/07 08:42:12;;;;;;;28.75;21.23;;;16.10;99.90;;;;;;4939025;29;20274;-77
2023/10/07 08:44:40;;;;;;;29.10;20.02;;;16.20;99.90;;;;;;4942556;29;20210;-79
2023/10/07 08:47:11;;;;;;;31.83;21.70;;;16.20;99.90;;;;;;4936446;29;20584;-77
2023/10/07 08:49:43;;;;;;;32.88;21.77;;;16.20;99.90;;;;;;4937821;29;20305;-77
2023/10/07 08:52:10;;;;;;;29.52;20.52;;;16.20;99.90;;;;;;4941280;29;20227;-79
2023/10/07 08:54:38;;;;;;;30.10;19.83;;;16.20;99.90;;;;;;4938628;29;20294;-79
2023/10/07 08:57:10;;;;;;;28.90;20.13;;;16.20;99.90;;;;;;4936824;29;20242;-79
2023/10/07 08:59:37;;;;;;;30.15;20.65;;;16.20;99.90;;;;;;4938707;29;20271;-77
2023/10/07 09:02:12;;;;;;;29.52;20.30;;;16.30;99.90;;;;;;4937043;29;20207;-78
2023/10/07 09:04:40;;;;;;;29.58;19.73;;;16.30;99.90;;;;;;4933068;29;20250;-77
2023/10/07 09:07:08;;;;;;;33.30;20.70;;;16.30;99.90;;;;;;4939260;29;20742;-78
2023/10/07 09:09:38;;;;;;;27.58;19.80;;;16.30;99.90;;;;;;4938530;29;20223;-77
2023/10/07 09:12:14;;;;;;;30.65;19.63;;;16.30;99.90;;;;;;4933309;29;20291;-78
2023/10/07 09:14:52;;;;;;;30.98;20.30;;;16.30;99.90;;;;;;4938384;29;20207;-78
2023/10/07 09:17:21;;;;;;;31.10;19.77;;;16.40;99.90;;;;;;4935865;29;20208;-77
2023/10/07 09:19:49;;;;;;;29.73;19.90;;;16.40;99.90;;;;;;4934210;29;20599;-77
2023/10/07 09:22:24;;;;;;;27.58;20.17;;;16.40;99.90;;;;;;4937868;29;20199;-77
2023/10/07 09:24:54;;;;;;;30.67;19.48;;;16.50;99.90;;;;;;4934096;29;20582;-77
2023/10/07 09:27:36;;;;;;;27.83;18.52;;;16.60;99.90;;;;;;4938277;29;20211;-78
2023/10/07 09:30:15;;;;;;;25.20;17.17;;;16.70;99.90;;;;;;4931956;29;20282;-77
2023/10/07 09:32:45;;;;;;;30.55;18.38;;;16.70;99.90;;;;;;4938027;29;21001;-78
2023/10/07 09:35:19;;;;;;;28.92;18.63;;;16.80;99.90;;;;;;4934107;29;20268;-78
2023/10/07 09:37:47;;;;;;;26.70;17.42;;;16.90;99.90;;;;;;4936561;29;20218;-77
2023/10/07 09:40:53;;;;;;;26.52;17.42;;;17.00;99.90;;;;;;4938260;29;20210;-79
2023/10/07 09:43:07;;;;;;;26.65;17.73;;;16.90;99.90;;;;;;4930273;29;20270;-77
2023/10/07 09:45:35;;;;;;;28.27;17.50;;;17.00;99.90;;;;;;4936874;29;20203;-77
2023/10/07 09:48:06;;;;;;;27.58;18.58;;;16.90;99.90;;;;;;4936319;29;20720;-77
2023/10/07 09:50:34;;;;;;;26.67;19.92;;;16.90;99.90;;;;;;4934463;29;20213;-77
2023/10/07 09:53:24;;;;;;;28.80;20.17;;;17.00;99.90;;;;;;4935354;29;20237;-78
2023/10/07 09:56:11;;;;;;;29.13;19.35;;;17.10;99.90;;;;;;4936873;29;20203;-78
2023/10/07 09:58:52;;;;;;;28.52;18.67;;;17.30;99.90;;;;;;4932130;29;20236;-78
2023/10/07 10:01:36;;;;;;;26.65;17.90;;;17.30;99.90;;;;;;4937337;29;20213;-78
2023/10/07 10:04:32;;;;;;;32.72;19.58;;;17.30;99.90;;;;;;4931504;29;20214;-78
2023/10/07 10:07:28;;;;;;;27.63;18.25;;;17.30;99.90;;;;;;4914060;29;20214;-78
2023/10/07 10:10:05;;;;;;;29.35;17.88;;;17.30;99.90;;;;;;4933691;29;20282;-77
2023/10/07 10:12:56;;;;;;;28.25;17.92;;;17.40;99.90;;;;;;4934381;29;20654;-78
2023/10/07 10:18:35;;;;;;;26.75;17.08;;;17.40;99.90;;;;;;4943435;29;20596;-78
2023/10/07 10:21:04;;;;;;;25.88;15.75;;;17.50;99.90;;;;;;4941352;29;20228;-77
2023/10/07 10:23:34;;;;;;;22.88;15.70;;;17.70;99.90;;;;;;4947316;29;20202;-77
2023/10/07 10:26:14;;;;;;;20.08;14.20;;;17.90;99.90;;;;;;4943001;29;20218;-77
2023/10/07 10:28:43;;;;;;;25.00;15.60;;;18.00;99.90;;;;;;4941204;29;20408;-78
2023/10/07 10:31:21;;;;;;;20.23;13.23;;;18.20;99.90;;;;;;4938588;29;20209;-78
2023/10/07 10:33:49;;;;;;;22.40;14.02;;;18.40;99.90;;;;;;4940606;29;20211;-78
2023/10/07 10:36:21;;;;;;;20.27;12.85;;;18.40;99.90;;;;;;4942161;29;20320;-78
2023/10/07 10:38:48;;;;;;;21.40;13.70;;;18.50;99.90;;;;;;4940346;29;20237;-77
2023/10/07 10:41:15;;;;;;;20.25;13.23;;;18.50;99.90;;;;;;4934856;29;20226;-78
2023/10/07 10:43:42;;;;;;;18.92;12.80;;;18.40;99.90;;;;;;4945697;29;20207;-78
2023/10/07 10:46:09;;;;;;;20.65;13.10;;;18.40;99.90;;;;;;4937324;29;20583;-77
2023/10/07 10:48:39;;;;;;;19.05;12.55;;;18.60;99.90;;;;;;4948309;29;20227;-77
2023/10/07 10:51:06;;;;;;;19.85;12.52;;;18.90;99.90;;;;;;4946554;29;20249;-78
2023/10/07 10:53:35;;;;;;;18.35;12.73;;;19.00;99.90;;;;;;4943130;29;20235;-79
2023/10/07 10:56:02;;;;;;;17.50;11.48;;;19.60;99.90;;;;;;4938417;29;20215;-77
2023/10/07 10:58:30;;;;;;;18.23;11.93;;;19.90;99.90;;;;;;4946169;29;20290;-78
2023/10/07 11:00:57;;;;;;;18.60;12.38;;;20.00;99.90;;;;;;4943818;28;20278;-77
2023/10/07 11:03:23;;;;;;;19.02;12.82;;;19.80;99.90;;;;;;4934643;29;20211;-77
2023/10/07 11:05:52;;;;;;;17.48;11.77;;;19.40;99.90;;;;;;4942243;29;20205;-78
2023/10/07 11:08:22;;;;;;;21.20;12.63;;;19.20;99.90;;;;;;4941334;29;20235;-78
2023/10/07 11:10:53;;;;;;;18.60;12.95;;;19.00;99.90;;;;;;4937864;29;20203;-77
2023/10/07 11:13:20;;;;;;;19.88;13.50;;;18.70;99.90;;;;;;4937830;29;20237;-78
2023/10/07 11:15:58;;;;;;;18.15;13.20;;;18.80;99.90;;;;;;4943809;29;20213;-78
2023/10/07 11:18:30;;;;;;;18.38;12.32;;;18.70;99.90;;;;;;4939066;29;20233;-79
2023/10/07 11:20:57;;;;;;;21.45;14.23;;;18.80;99.90;;;;;;4938258;29;20694;-78
2023/10/07 11:23:27;;;;;;;19.70;13.02;;;18.90;99.90;;;;;;4943382;29;20199;-78
2023/10/07 11:25:56;;;;;;;18.95;13.50;;;18.80;99.90;;;;;;4937756;29;20271;-78
2023/10/07 11:28:23;;;;;;;21.25;14.50;;;18.90;99.90;;;;;;4933047;29;20223;-79
2023/10/07 11:30:51;;;;;;;19.45;14.38;;;18.80;99.90;;;;;;4938616;29;20196;-78
2023/10/07 11:33:19;;;;;;;18.92;13.55;;;18.70;99.90;;;;;;4936744;29;20231;-77
2023/10/07 11:35:58;;;;;;;22.20;13.85;;;18.80;99.90;;;;;;4941080;29;20273;-78
2023/10/07 11:38:26;;;;;;;20.77;14.05;;;18.70;99.90;;;;;;4936922;29;20245;-79
2023/10/07 11:40:53;;;;;;;19.65;13.70;;;18.90;99.90;;;;;;4937314;29;20213;-78
2023/10/07 11:43:21;;;;;;;19.38;14.13;;;19.20;99.90;;;;;;4933576;29;20214;-78
2023/10/07 11:45:50;;;;;;;17.90;13.68;;;19.30;99.90;;;;;;4935049;29;20290;-78
2023/10/07 11:48:19;;;;;;;18.38;13.20;;;19.40;99.90;;;;;;4935857;29;20234;-79
2023/10/07 11:50:47;;;;;;;19.30;13.77;;;19.50;99.90;;;;;;4933728;29;20270;-79
2023/10/07 11:53:13;;;;;;;19.00;13.98;;;19.50;99.90;;;;;;4935983;29;20540;-78
2023/10/07 11:55:40;;;;;;;16.40;13.25;;;19.60;99.90;;;;;;4940724;29;20231;-78
2023/10/07 11:58:08;;;;;;;16.90;13.00;;;19.80;99.90;;;;;;4932567;29;20227;-77
2023/10/07 12:00:36;;;;;;;15.40;11.95;;;19.90;99.90;;;;;;4929754;29;20238;-78
2023/10/07 12:03:07;;;;;;;16.85;12.82;;;19.80;99.90;;;;;;4935912;29;20241;-78
2023/10/07 12:05:38;;;;;;;15.75;12.20;;;19.90;99.90;;;;;;4938195;29;20211;-78
2023/10/07 12:08:05;;;;;;;17.23;11.70;;;19.80;99.90;;;;;;4935377;29;20231;-80
2023/10/07 12:10:36;;;;;;;14.57;11.68;;;19.70;99.90;;;;;;4940017;29;20236;-78
2023/10/07 12:13:03;;;;;;;13.77;11.02;;;19.80;99.90;;;;;;4934716;29;20238;-78
2023/10/07 12:15:30;;;;;;;17.20;11.02;;;19.90;99.90;;;;;;4938049;29;20246;-78
2023/10/07 12:17:58;;;;;;;15.20;11.15;;;20.00;99.90;;;;;;4941922;29;20717;-78
2023/10/07 12:20:27;;;;;;;13.52;11.07;;;20.10;99.90;;;;;;4937274;29;20628;-80
2023/10/07 12:22:54;;;;;;;14.35;11.18;;;20.30;99.90;;;;;;4937878;29;20208;-78
2023/10/07 12:25:21;;;;;;;12.10;10.05;;;20.40;99.90;;;;;;4931819;29;20208;-78
2023/10/07 12:27:48;;;;;;;12.00;10.05;;;20.40;99.90;;;;;;4940992;29;20598;-78
2023/10/07 12:30:21;;;;;;;12.35;9.15;;;20.50;99.90;;;;;;4936577;29;20645;-79
2023/10/07 12:32:48;;;;;;;12.35;9.98;;;20.60;99.90;;;;;;4935947;29;20603;-78
2023/10/07 12:35:17;;;;;;;12.40;9.07;;;20.50;99.90;;;;;;4937338;29;20207;-79
2023/10/07 12:37:47;;;;;;;12.80;9.07;;;20.50;99.90;;;;;;4935105;29;20680;-78
2023/10/07 12:40:17;;;;;;;11.88;8.48;;;20.40;99.90;;;;;;4938491;28;20211;-78
2023/10/07 12:42:45;;;;;;;10.23;7.75;;;20.50;99.90;;;;;;4940557;29;20667;-78
2023/10/07 12:45:12;;;;;;;12.77;8.27;;;20.60;99.90;;;;;;4945856;29;20426;-78
2023/10/07 12:47:39;;;;;;;10.80;6.30;;;20.70;99.90;;;;;;4938974;29;20659;-78
2023/10/07 12:50:20;;;;;;;9.35;6.82;;;20.70;99.90;;;;;;4942021;29;20215;-78
2023/10/07 12:52:49;;;;;;;9.80;5.90;;;21.00;99.90;;;;;;4943647;29;20273;-78
2023/10/07 12:55:16;;;;;;;6.22;5.25;;;20.90;99.90;;;;;;4935919;29;20270;-78